Time;durP1;ratioP1;P1;durP2;ratioP2;P2;SDS_P1;SDS_P2;PMS_P1;PMS_P2;Temp;Humidity;BMP_temperature;BMP_pressure;BME280_temperature;BME280_humidity;BME280_pressure;Samples;Min_cycle;Max_cycle;Signal;HPM_P1;HPM_P2
2024/02/25 00:02:13;;;;;;;1.57;0.77;;;;;;;4.85;76.58;99722.78;5039949;28;20221;-69
2024/02/25 00:04:39;;;;;;;1.77;0.50;;;;;;;4.83;76.36;99736.09;5045765;28;20210;-69
2024/02/25 00:07:06;;;;;;;1.57;0.70;;;;;;;4.80;76.74;99730.13;5046737;28;20210;-70
2024/02/25 00:09:32;;;;;;;0.90;0.50;;;;;;;4.76;76.74;99733.84;5043796;28;20216;-69
2024/02/25 00:11:59;;;;;;;0.83;0.63;;;;;;;4.75;76.71;99740.91;5043460;28;20229;-70
2024/02/25 00:14:29;;;;;;;1.40;0.73;;;;;;;4.72;77.16;99742.84;5042456;28;20301;-69
2024/02/25 00:16:57;;;;;;;1.80;0.73;;;;;;;4.68;77.20;99736.03;5039604;28;20700;-69
2024/02/25 00:19:24;;;;;;;1.27;0.70;;;;;;;4.64;77.67;99745.91;5046864;28;20231;-68
2024/02/25 00:21:50;;;;;;;2.00;1.23;;;;;;;4.58;78.07;99738.31;5046793;28;21435;-69
2024/02/25 00:24:19;;;;;;;1.60;1.07;;;;;;;4.49;78.22;99744.91;5046644;28;20212;-69
2024/02/25 00:26:45;;;;;;;1.93;0.73;;;;;;;4.47;78.80;99738.91;5045445;28;20206;-69
2024/02/25 00:29:14;;;;;;;1.47;0.80;;;;;;;4.45;79.00;99740.75;5043056;28;20220;-70
2024/02/25 00:31:41;;;;;;;2.20;0.80;;;;;;;4.41;78.97;99733.09;5045823;28;20495;-70
2024/02/25 00:34:09;;;;;;;2.00;0.80;;;;;;;4.36;80.13;99729.84;5040480;28;20281;-70
2024/02/25 00:36:36;;;;;;;2.00;0.60;;;;;;;4.33;80.39;99735.25;5043184;28;20210;-70
2024/02/25 00:39:03;;;;;;;1.80;0.80;;;;;;;4.32;81.06;99731.78;5042755;28;20707;-70
2024/02/25 00:41:30;;;;;;;1.93;0.80;;;;;;;4.32;81.22;99733.56;5047607;28;20233;-69
2024/02/25 00:43:57;;;;;;;0.90;0.80;;;;;;;4.29;81.91;99728.47;5042602;28;20205;-69
2024/02/25 00:46:23;;;;;;;2.17;0.90;;;;;;;4.26;82.06;99726.00;5043230;28;20217;-68
2024/02/25 00:48:50;;;;;;;2.73;1.00;;;;;;;4.27;82.52;99714.50;5035477;28;20229;-69
2024/02/25 00:51:18;;;;;;;1.43;1.10;;;;;;;4.25;82.93;99724.28;5041952;28;20222;-70
2024/02/25 00:53:44;;;;;;;1.33;0.80;;;;;;;4.23;83.00;99720.88;5043302;28;20671;-70
2024/02/25 00:56:11;;;;;;;1.77;1.17;;;;;;;4.24;83.69;99720.78;5045639;28;20564;-69
2024/02/25 00:58:38;;;;;;;1.63;1.00;;;;;;;4.22;83.61;99729.72;5038108;28;20320;-70
2024/02/25 01:01:06;;;;;;;1.57;0.80;;;;;;;4.21;84.11;99725.38;5042871;28;20307;-69
2024/02/25 01:03:33;;;;;;;1.53;0.80;;;;;;;4.18;84.54;99716.69;5042861;28;20209;-70
2024/02/25 01:05:59;;;;;;;3.37;0.90;;;;;;;4.15;84.47;99711.56;5046480;28;20694;-69
2024/02/25 01:08:27;;;;;;;3.00;1.43;;;;;;;4.16;84.48;99712.41;5042873;28;20213;-70
2024/02/25 01:10:54;;;;;;;4.03;1.20;;;;;;;4.17;85.12;99728.16;5042123;28;20236;-69
2024/02/25 01:13:20;;;;;;;1.30;0.60;;;;;;;4.22;85.15;99721.81;5045069;28;20208;-69
2024/02/25 01:15:47;;;;;;;0.97;0.80;;;;;;;4.21;84.95;99712.19;5043484;28;20640;-68
2024/02/25 01:18:13;;;;;;;3.20;0.90;;;;;;;4.19;84.77;99712.25;5042331;28;20512;-69
2024/02/25 01:20:40;;;;;;;1.97;0.90;;;;;;;4.14;85.19;99714.28;5042246;28;20304;-69
2024/02/25 01:23:06;;;;;;;1.67;0.80;;;;;;;4.12;85.02;99722.25;5047071;28;20216;-69
2024/02/25 01:25:34;;;;;;;0.90;0.70;;;;;;;4.10;85.44;99710.13;5043614;28;20205;-68
2024/02/25 01:28:01;;;;;;;0.80;0.60;;;;;;;4.06;85.56;99714.69;5045340;28;20216;-69
2024/02/25 01:30:27;;;;;;;1.03;0.70;;;;;;;4.01;85.24;99714.06;5042768;28;20243;-68
2024/02/25 01:32:54;;;;;;;1.33;0.97;;;;;;;4.01;86.32;99703.53;5042107;28;20273;-68
2024/02/25 01:35:21;;;;;;;0.63;0.60;;;;;;;3.98;85.82;99714.22;5043360;28;20205;-69
2024/02/25 01:37:47;;;;;;;1.13;0.60;;;;;;;3.90;85.86;99697.97;5051209;28;20214;-69
2024/02/25 01:40:14;;;;;;;1.20;0.80;;;;;;;3.90;85.92;99699.75;5041506;28;20229;-69
2024/02/25 01:42:42;;;;;;;3.00;0.90;;;;;;;3.87;86.31;99703.41;5040487;28;20715;-69
2024/02/25 01:45:09;;;;;;;1.13;0.70;;;;;;;3.86;86.04;99700.84;5041286;28;20201;-71
2024/02/25 01:47:36;;;;;;;4.27;0.70;;;;;;;3.85;86.39;99702.63;5043282;28;20208;-69
2024/02/25 01:50:04;;;;;;;2.00;0.80;;;;;;;3.84;86.34;99699.13;5040831;28;20202;-68
2024/02/25 01:52:31;;;;;;;1.77;0.70;;;;;;;3.83;86.15;99694.78;5043237;28;20221;-68
2024/02/25 01:54:58;;;;;;;1.27;0.70;;;;;;;3.80;86.67;99691.47;5041970;28;20244;-69
2024/02/25 01:57:25;;;;;;;1.07;0.63;;;;;;;3.78;86.63;99688.03;5042757;28;20209;-70
2024/02/25 01:59:55;;;;;;;2.13;0.70;;;;;;;3.77;86.57;99681.91;5042440;28;20230;-69
2024/02/25 02:02:21;;;;;;;1.10;0.60;;;;;;;3.77;86.38;99678.44;5038106;28;20737;-68
2024/02/25 02:04:48;;;;;;;2.37;0.83;;;;;;;3.76;86.63;99679.41;5045883;28;20229;-68
2024/02/25 02:07:15;;;;;;;1.23;0.80;;;;;;;3.74;86.98;99679.47;5042553;28;20228;-68
2024/02/25 02:09:42;;;;;;;2.77;1.10;;;;;;;3.75;86.70;99678.53;5041287;28;20629;-68
2024/02/25 02:12:08;;;;;;;1.30;1.00;;;;;;;3.74;86.25;99668.94;5044084;28;20636;-69
2024/02/25 02:14:35;;;;;;;1.43;0.60;;;;;;;3.73;86.29;99667.22;5044035;28;20220;-69
2024/02/25 02:17:05;;;;;;;0.97;0.63;;;;;;;3.73;86.05;99667.22;5041398;28;20281;-69
2024/02/25 02:19:31;;;;;;;0.87;0.67;;;;;;;3.73;86.45;99664.59;5035078;28;20324;-69
2024/02/25 02:21:59;;;;;;;1.53;0.50;;;;;;;3.73;86.60;99655.84;5044522;28;20225;-69
2024/02/25 02:24:26;;;;;;;2.60;0.63;;;;;;;3.74;85.97;99661.03;5041973;28;20227;-68
2024/02/25 02:26:52;;;;;;;1.93;0.80;;;;;;;3.72;86.22;99656.78;5041988;28;20210;-70
2024/02/25 02:29:19;;;;;;;1.30;0.67;;;;;;;3.71;85.77;99652.44;5042547;28;20213;-68
2024/02/25 02:31:45;;;;;;;3.50;0.70;;;;;;;3.67;85.85;99646.47;5043655;28;20225;-70
2024/02/25 02:34:12;;;;;;;2.83;0.60;;;;;;;3.66;86.44;99643.91;5041546;28;20618;-69
2024/02/25 02:36:39;;;;;;;1.27;0.73;;;;;;;3.64;85.99;99651.03;5039431;28;20402;-69
2024/02/25 02:39:07;;;;;;;2.00;0.60;;;;;;;3.60;86.43;99638.94;5047485;28;20229;-69
2024/02/25 02:41:34;;;;;;;1.77;0.60;;;;;;;3.59;86.40;99647.78;5044728;28;20237;-69
2024/02/25 02:44:01;;;;;;;0.60;0.60;;;;;;;3.56;86.84;99638.28;5041592;28;20288;-69
2024/02/25 02:46:29;;;;;;;1.80;0.70;;;;;;;3.56;86.68;99642.69;5044797;28;20213;-69
2024/02/25 02:48:56;;;;;;;0.90;0.60;;;;;;;3.55;86.80;99641.84;5039816;28;20227;-69
2024/02/25 02:51:22;;;;;;;0.47;0.40;;;;;;;3.53;86.99;99641.06;5042328;28;20320;-69
2024/02/25 02:53:49;;;;;;;2.57;0.80;;;;;;;3.49;86.60;99639.50;5043194;28;20685;-68
2024/02/25 02:56:17;;;;;;;1.03;0.70;;;;;;;3.47;86.84;99639.56;5045113;28;20211;-68
2024/02/25 02:58:48;;;;;;;2.47;0.70;;;;;;;3.46;86.99;99634.38;5043856;28;20229;-69
2024/02/25 03:01:15;;;;;;;1.07;0.70;;;;;;;3.43;87.12;99630.13;5043679;28;20302;-72
2024/02/25 03:03:41;;;;;;;1.20;0.57;;;;;;;3.41;87.04;99633.75;5043771;28;20231;-68
2024/02/25 03:06:08;;;;;;;1.57;0.60;;;;;;;3.40;87.29;99624.19;5042777;28;20202;-69
2024/02/25 03:08:34;;;;;;;0.80;0.57;;;;;;;3.37;87.56;99629.59;5044440;28;20669;-69
2024/02/25 03:11:01;;;;;;;0.57;0.57;;;;;;;3.33;87.78;99628.03;5044559;28;20228;-70
2024/02/25 03:13:29;;;;;;;1.07;0.70;;;;;;;3.33;87.33;99622.78;5038626;28;20210;-69
2024/02/25 03:15:55;;;;;;;0.70;0.60;;;;;;;3.32;87.81;99621.94;5042912;28;20208;-68
2024/02/25 03:18:22;;;;;;;0.63;0.40;;;;;;;3.31;87.71;99620.22;5045825;28;20205;-69
2024/02/25 03:20:49;;;;;;;2.37;0.70;;;;;;;3.30;87.72;99615.88;5041864;28;20232;-69
2024/02/25 03:23:15;;;;;;;0.50;0.50;;;;;;;3.31;88.14;99612.31;5039577;28;20680;-68
2024/02/25 03:25:42;;;;;;;0.93;0.50;;;;;;;3.35;87.97;99615.66;5044267;28;20210;-69
2024/02/25 03:28:09;;;;;;;0.90;0.50;;;;;;;3.33;88.30;99607.84;5045578;28;20206;-69
2024/02/25 03:30:37;;;;;;;1.00;0.50;;;;;;;3.31;88.12;99603.59;5037905;28;20230;-68
2024/02/25 03:33:05;;;;;;;0.70;0.43;;;;;;;3.31;88.07;99609.69;5040030;28;20217;-69
2024/02/25 03:35:33;;;;;;;1.37;0.60;;;;;;;3.32;88.75;99613.19;5036053;28;20214;-68
2024/02/25 03:38:01;;;;;;;2.23;1.10;;;;;;;3.32;88.69;99610.56;5044776;28;20293;-70
2024/02/25 03:40:28;;;;;;;1.70;0.70;;;;;;;3.33;88.91;99614.88;5043499;28;20731;-69
2024/02/25 03:42:55;;;;;;;2.53;0.67;;;;;;;3.33;89.04;99612.25;5038557;28;20210;-69
2024/02/25 03:45:21;;;;;;;0.50;0.50;;;;;;;3.33;89.27;99605.22;5036760;28;20210;-69
2024/02/25 03:47:49;;;;;;;1.00;0.50;;;;;;;3.34;89.19;99617.44;5041696;28;21351;-68
2024/02/25 03:50:16;;;;;;;0.80;0.70;;;;;;;3.32;89.49;99608.78;5037351;28;20657;-68
2024/02/25 03:52:42;;;;;;;1.77;1.10;;;;;;;3.31;89.62;99612.31;5101239;22;20715;-73
2024/02/25 03:55:09;;;;;;;2.13;1.30;;;;;;;3.28;89.48;99606.38;5087082;28;20212;-73
2024/02/25 03:57:37;;;;;;;2.33;1.10;;;;;;;3.29;89.25;99608.06;5086825;28;20703;-73
2024/02/25 04:00:05;;;;;;;1.73;1.03;;;;;;;3.28;89.34;99614.25;5087124;28;20220;-71
2024/02/25 04:02:31;;;;;;;1.53;0.80;;;;;;;3.30;89.54;99605.38;5071324;28;20228;-72
2024/02/25 04:04:59;;;;;;;2.30;1.00;;;;;;;3.29;89.90;99603.66;5069130;28;20208;-73
2024/02/25 04:07:26;;;;;;;0.93;0.70;;;;;;;3.33;90.05;99602.59;5068485;28;20207;-73
2024/02/25 04:09:52;;;;;;;1.30;1.10;;;;;;;3.33;89.66;99599.94;5066657;28;20213;-73
2024/02/25 04:12:19;;;;;;;0.97;0.70;;;;;;;3.35;89.88;99599.88;5068625;28;20222;-76
2024/02/25 04:14:46;;;;;;;1.80;0.90;;;;;;;3.35;89.64;99606.00;5067781;28;20205;-74
2024/02/25 04:17:13;;;;;;;3.13;1.37;;;;;;;3.34;89.72;99606.91;5065703;28;20211;-72
2024/02/25 04:19:40;;;;;;;1.00;0.83;;;;;;;3.34;89.29;99600.81;5067184;28;20229;-73
2024/02/25 04:22:08;;;;;;;1.67;0.80;;;;;;;3.34;89.15;99600.81;5067263;28;20245;-73
2024/02/25 04:24:34;;;;;;;1.87;1.13;;;;;;;3.33;89.33;99601.72;5066979;28;20209;-73
2024/02/25 04:27:02;;;;;;;1.60;0.80;;;;;;;3.31;89.57;99598.31;5075083;28;20227;-73
2024/02/25 04:29:29;;;;;;;1.97;0.77;;;;;;;3.30;89.34;99594.84;5064172;28;20244;-73
2024/02/25 04:31:56;;;;;;;2.30;0.93;;;;;;;3.31;89.76;99588.66;5068171;28;20225;-73
2024/02/25 04:34:22;;;;;;;2.03;0.80;;;;;;;3.32;89.37;99584.25;5076970;28;20287;-72
2024/02/25 04:36:49;;;;;;;1.63;0.87;;;;;;;3.38;88.55;99582.16;5072936;28;20572;-73
2024/02/25 04:39:16;;;;;;;1.60;0.70;;;;;;;3.40;88.48;99577.63;5065847;28;20232;-72
2024/02/25 04:41:43;;;;;;;1.93;0.77;;;;;;;3.45;88.03;99575.63;5066949;28;20299;-72
2024/02/25 04:44:10;;;;;;;0.70;0.60;;;;;;;3.49;87.82;99577.19;5071988;28;20211;-73
2024/02/25 04:46:38;;;;;;;0.77;0.50;;;;;;;3.50;87.62;99564.88;5063128;28;20204;-72
2024/02/25 04:49:05;;;;;;;1.23;0.70;;;;;;;3.53;86.77;99558.59;5066089;28;20205;-72
2024/02/25 04:51:33;;;;;;;1.63;0.70;;;;;;;3.54;86.34;99557.66;5065218;28;20331;-73
2024/02/25 04:53:59;;;;;;;2.80;0.90;;;;;;;3.57;86.12;99554.88;5065916;28;20816;-72
2024/02/25 04:56:28;;;;;;;1.17;0.77;;;;;;;3.59;85.92;99553.00;5068333;28;20201;-72
2024/02/25 04:58:55;;;;;;;0.60;0.50;;;;;;;3.64;85.45;99550.97;5064781;28;20270;-73
2024/02/25 05:01:23;;;;;;;1.57;0.60;;;;;;;3.65;85.39;99536.88;5063428;28;20546;-71
2024/02/25 05:03:49;;;;;;;2.20;2.00;;;;;;;3.66;85.13;99535.97;5067193;28;20204;-71
2024/02/25 05:06:16;;;;;;;1.70;0.90;;;;;;;3.67;85.26;99533.25;5066630;28;20205;-71
2024/02/25 05:08:42;;;;;;;0.83;0.80;;;;;;;3.66;85.27;99528.06;5067159;28;20205;-70
2024/02/25 05:11:09;;;;;;;1.20;0.53;;;;;;;3.68;84.50;99542.00;5061975;28;20239;-74
2024/02/25 05:13:37;;;;;;;1.10;0.70;;;;;;;3.69;84.94;99535.81;5064748;28;20229;-73
2024/02/25 05:16:06;;;;;;;1.40;0.87;;;;;;;3.73;84.45;99529.44;5066166;28;20209;-73
2024/02/25 05:18:32;;;;;;;2.00;1.43;;;;;;;3.73;84.39;99534.72;5064929;28;20201;-72
2024/02/25 05:20:59;;;;;;;1.50;0.67;;;;;;;3.75;84.01;99532.84;5064946;28;20240;-73
2024/02/25 05:23:25;;;;;;;0.60;0.60;;;;;;;3.76;84.00;99529.28;5066861;28;20298;-74
2024/02/25 05:25:52;;;;;;;2.93;1.10;;;;;;;3.76;84.11;99545.91;5064607;28;20224;-73
2024/02/25 05:28:18;;;;;;;1.13;0.90;;;;;;;3.81;82.68;99533.34;5067325;28;20306;-73
2024/02/25 05:30:46;;;;;;;2.67;0.80;;;;;;;3.88;82.43;99533.03;5063372;28;20209;-73
2024/02/25 05:33:13;;;;;;;1.30;0.90;;;;;;;3.87;82.66;99529.56;5065153;28;20209;-72
2024/02/25 05:35:41;;;;;;;1.40;0.60;;;;;;;3.92;82.21;99530.16;5070542;28;20225;-72
2024/02/25 05:38:07;;;;;;;1.77;0.87;;;;;;;3.92;82.04;99519.63;5070562;28;20201;-72
2024/02/25 05:40:34;;;;;;;2.30;0.70;;;;;;;3.95;81.72;99519.44;5065934;28;20240;-73
2024/02/25 05:43:01;;;;;;;1.20;0.70;;;;;;;3.99;81.67;99520.13;5065713;28;20519;-73
2024/02/25 05:45:27;;;;;;;1.60;0.80;;;;;;;4.01;81.24;99529.66;5068045;28;20209;-72
2024/02/25 05:47:55;;;;;;;1.10;0.63;;;;;;;4.02;81.53;99525.25;5069978;28;20232;-73
2024/02/25 05:50:22;;;;;;;1.50;0.67;;;;;;;4.06;80.71;99522.34;5066723;28;20235;-73
2024/02/25 05:52:48;;;;;;;2.43;0.93;;;;;;;4.10;80.72;99523.91;5063556;28;20721;-73
2024/02/25 05:55:17;;;;;;;0.80;0.80;;;;;;;4.14;80.18;99525.41;5063585;28;20209;-72
2024/02/25 05:57:44;;;;;;;1.37;0.73;;;;;;;4.15;80.29;99523.63;5063269;28;20209;-73
2024/02/25 06:00:12;;;;;;;1.17;0.80;;;;;;;4.21;79.81;99519.81;5069635;28;20340;-74
2024/02/25 06:02:39;;;;;;;2.17;1.20;;;;;;;4.24;79.65;99519.66;5062515;28;20704;-73
2024/02/25 06:05:13;;;;;;;1.70;1.00;;;;;;;4.26;79.27;99526.53;5062801;28;20227;-72
2024/02/25 06:07:39;;;;;;;1.77;1.20;;;;;;;4.30;79.22;99519.31;5065376;28;20208;-73
2024/02/25 06:10:07;;;;;;;2.13;1.33;;;;;;;4.31;78.46;99531.53;5067695;28;20213;-73
2024/02/25 06:12:35;;;;;;;3.10;1.50;;;;;;;4.31;78.96;99531.53;5062951;28;20255;-72
2024/02/25 06:15:03;;;;;;;1.63;0.80;;;;;;;4.31;78.22;99532.38;5065362;28;20208;-73
2024/02/25 06:17:29;;;;;;;2.10;1.30;;;;;;;4.32;78.11;99520.91;5063224;28;20209;-74
2024/02/25 06:19:56;;;;;;;4.57;1.10;;;;;;;4.37;77.68;99525.94;5064774;28;20228;-72
2024/02/25 06:22:24;;;;;;;1.23;1.10;;;;;;;4.37;77.55;99531.19;5064129;28;20695;-73
2024/02/25 06:24:51;;;;;;;2.10;1.10;;;;;;;4.41;77.11;99536.22;5061780;28;20727;-73
2024/02/25 06:27:17;;;;;;;1.63;0.90;;;;;;;4.42;77.04;99539.72;5065885;28;20209;-73
2024/02/25 06:29:44;;;;;;;2.53;0.87;;;;;;;4.40;77.19;99538.94;5066838;28;20220;-70
2024/02/25 06:32:10;;;;;;;2.03;0.90;;;;;;;4.40;77.67;99537.16;5064325;28;20308;-74
2024/02/25 06:34:38;;;;;;;0.97;0.70;;;;;;;4.41;77.56;99545.91;5064178;28;20284;-71
2024/02/25 06:37:04;;;;;;;0.90;0.80;;;;;;;4.39;77.29;99531.97;5065075;28;20288;-70
2024/02/25 06:39:32;;;;;;;1.17;0.77;;;;;;;4.39;77.60;99529.34;5064773;28;20215;-71
2024/02/25 06:41:59;;;;;;;1.20;0.63;;;;;;;4.38;77.26;99533.75;5066154;28;20238;-73
2024/02/25 06:44:25;;;;;;;0.73;0.60;;;;;;;4.37;77.67;99544.38;5063391;28;20210;-73
2024/02/25 06:46:52;;;;;;;1.33;0.90;;;;;;;4.36;77.70;99540.91;5060310;28;20217;-73
2024/02/25 06:49:19;;;;;;;2.13;0.90;;;;;;;4.41;77.03;99548.56;5063351;28;20252;-73
2024/02/25 06:51:45;;;;;;;1.77;0.93;;;;;;;4.43;76.95;99551.97;5061312;28;20612;-72
2024/02/25 06:54:12;;;;;;;1.90;0.90;;;;;;;4.42;77.02;99548.47;5062943;28;20216;-73
2024/02/25 06:56:40;;;;;;;1.47;0.93;;;;;;;4.43;76.85;99554.59;5063409;28;20217;-73
2024/02/25 06:59:07;;;;;;;2.23;1.33;;;;;;;4.46;75.98;99546.53;5064592;28;20212;-71
2024/02/25 07:01:33;;;;;;;1.83;1.60;;;;;;;4.48;76.13;99557.81;5062646;28;20237;-71
2024/02/25 07:04:00;;;;;;;2.73;1.83;;;;;;;4.50;76.00;99553.28;5065309;28;20203;-72
2024/02/25 07:06:27;;;;;;;2.67;1.50;;;;;;;4.56;75.59;99557.38;5065679;28;20204;-75
2024/02/25 07:08:53;;;;;;;3.33;2.37;;;;;;;4.58;75.36;99556.38;5063799;28;20292;-74
2024/02/25 07:11:21;;;;;;;2.00;1.80;;;;;;;4.60;75.06;99558.94;5064301;28;20224;-73
2024/02/25 07:13:49;;;;;;;3.43;1.83;;;;;;;4.63;75.00;99553.47;5062886;28;20227;-73
2024/02/25 07:16:16;;;;;;;3.60;1.70;;;;;;;4.75;73.18;99553.63;5061887;28;20251;-72
2024/02/25 07:18:43;;;;;;;2.33;1.90;;;;;;;4.75;74.08;99560.69;5061506;28;20213;-73
2024/02/25 07:21:11;;;;;;;2.90;1.23;;;;;;;4.82;73.47;99560.28;5062227;28;20453;-74
2024/02/25 07:23:40;;;;;;;1.73;1.57;;;;;;;4.84;73.39;99558.38;5064433;28;20216;-72
2024/02/25 07:26:06;;;;;;;2.53;1.50;;;;;;;4.91;73.47;99555.38;5069138;28;20201;-73
2024/02/25 07:28:33;;;;;;;4.80;1.50;;;;;;;4.97;73.25;99565.59;5066937;28;20212;-76
2024/02/25 07:31:02;;;;;;;2.40;1.33;;;;;;;5.01;72.47;99559.22;5064009;28;20316;-71
2024/02/25 07:33:29;;;;;;;2.63;1.53;;;;;;;4.99;72.67;99555.81;5067695;28;20216;-71
2024/02/25 07:35:56;;;;;;;2.60;1.70;;;;;;;5.00;73.02;99563.63;5069031;28;20201;-71
2024/02/25 07:38:22;;;;;;;2.83;1.50;;;;;;;5.05;73.01;99566.84;5065773;28;20204;-71
2024/02/25 07:40:48;;;;;;;1.40;1.00;;;;;;;5.11;72.71;99570.91;5067359;28;20224;-73
2024/02/25 07:43:15;;;;;;;1.57;1.00;;;;;;;5.14;72.71;99566.31;5064946;28;20209;-71
2024/02/25 07:45:41;;;;;;;1.90;0.93;;;;;;;5.15;72.85;99569.81;5064738;28;20212;-72
2024/02/25 07:48:11;;;;;;;2.13;0.90;;;;;;;5.20;72.66;99567.72;5065927;28;20217;-72
2024/02/25 07:50:37;;;;;;;1.80;1.30;;;;;;;5.28;72.20;99573.44;5066388;28;20201;-71
2024/02/25 07:53:04;;;;;;;2.40;1.70;;;;;;;5.37;71.71;99566.78;5064312;28;20690;-72
2024/02/25 07:55:30;;;;;;;1.80;1.13;;;;;;;5.38;72.15;99569.28;5066417;28;20209;-71
2024/02/25 07:57:57;;;;;;;1.83;0.73;;;;;;;5.43;72.06;99577.78;5064461;28;20193;-71
2024/02/25 08:00:23;;;;;;;1.17;1.00;;;;;;;5.46;72.06;99579.41;5067239;28;20229;-72
2024/02/25 08:02:52;;;;;;;1.27;0.80;;;;;;;5.52;72.77;99573.78;5064133;28;20225;-71
2024/02/25 08:05:20;;;;;;;1.57;1.10;;;;;;;5.56;72.86;99575.25;5067461;28;20204;-71
2024/02/25 08:07:48;;;;;;;1.30;0.90;;;;;;;5.62;72.96;99585.47;5062663;28;20205;-73
2024/02/25 08:10:16;;;;;;;1.83;0.87;;;;;;;5.68;73.29;99578.97;5065227;28;20335;-71
2024/02/25 08:12:42;;;;;;;1.00;0.70;;;;;;;5.70;73.69;99590.31;5064210;28;20232;-71
2024/02/25 08:15:10;;;;;;;2.17;1.07;;;;;;;5.72;73.33;99583.16;5068555;28;20205;-72
2024/02/25 08:17:36;;;;;;;1.20;1.10;;;;;;;5.73;74.19;99585.66;5067529;28;20320;-73
2024/02/25 08:20:03;;;;;;;1.10;0.90;;;;;;;5.75;74.27;99593.50;5063641;28;20578;-72
2024/02/25 08:22:32;;;;;;;1.03;0.90;;;;;;;5.74;74.72;99587.38;5067602;28;20628;-73
2024/02/25 08:24:59;;;;;;;1.50;1.00;;;;;;;5.82;75.49;99582.47;5067778;28;20205;-73
2024/02/25 08:27:28;;;;;;;0.90;0.80;;;;;;;5.84;75.49;99587.69;5069616;28;20201;-71
2024/02/25 08:29:55;;;;;;;0.83;0.57;;;;;;;5.86;76.15;99599.00;5066088;28;20239;-72
2024/02/25 08:32:22;;;;;;;1.30;0.80;;;;;;;5.92;76.68;99591.56;5065782;28;20229;-71
2024/02/25 08:34:53;;;;;;;0.83;0.70;;;;;;;6.01;75.98;99590.16;5065075;28;20205;-72
2024/02/25 08:37:19;;;;;;;1.47;0.90;;;;;;;6.01;75.61;99590.16;5063675;28;20305;-71
2024/02/25 08:39:47;;;;;;;1.30;0.70;;;;;;;6.09;75.62;99584.44;5064564;28;20284;-72
2024/02/25 08:42:13;;;;;;;2.20;0.87;;;;;;;6.10;75.94;99594.03;5065037;28;20236;-72
2024/02/25 08:44:40;;;;;;;0.93;0.70;;;;;;;6.15;75.68;99587.53;5065206;28;20211;-73
2024/02/25 08:47:06;;;;;;;1.13;0.90;;;;;;;6.19;74.31;99594.31;5066935;28;20339;-72
2024/02/25 08:49:33;;;;;;;1.83;0.73;;;;;;;6.18;74.24;99587.34;5064941;28;20676;-73
2024/02/25 08:52:00;;;;;;;8.20;2.47;;;;;;;6.25;73.29;99599.25;5063993;28;20251;-72
2024/02/25 08:54:26;;;;;;;3.40;1.20;;;;;;;6.31;72.42;99589.19;5061651;28;20212;-72
2024/02/25 08:56:54;;;;;;;2.27;1.13;;;;;;;6.34;72.02;99597.81;5061534;28;20287;-74
2024/02/25 08:59:21;;;;;;;2.87;1.60;;;;;;;6.38;71.57;99590.53;5064144;28;20683;-73
2024/02/25 09:01:48;;;;;;;1.53;1.10;;;;;;;6.41;71.11;99583.25;5066188;28;20341;-73
2024/02/25 09:04:14;;;;;;;2.30;1.10;;;;;;;6.45;70.08;99571.50;5066674;28;20212;-73
2024/02/25 09:06:41;;;;;;;1.80;0.63;;;;;;;6.51;69.53;99572.94;5060791;28;20212;-73
2024/02/25 09:09:09;;;;;;;2.27;1.10;;;;;;;6.56;69.53;99581.44;5066344;28;20739;-72
2024/02/25 09:11:35;;;;;;;1.07;0.97;;;;;;;6.61;69.46;99580.19;5058922;28;20318;-73
2024/02/25 09:14:03;;;;;;;0.97;0.80;;;;;;;6.69;68.93;99573.56;5066868;28;20679;-73
2024/02/25 09:16:30;;;;;;;1.13;1.03;;;;;;;6.73;68.68;99573.25;5058791;28;20276;-73
2024/02/25 09:18:56;;;;;;;1.40;1.10;;;;;;;6.77;68.79;99576.56;5065034;28;20225;-73
2024/02/25 09:21:23;;;;;;;2.17;1.13;;;;;;;6.77;68.63;99579.22;5061936;28;20553;-73
2024/02/25 09:23:50;;;;;;;1.17;0.80;;;;;;;6.79;68.57;99582.59;5067464;28;20197;-72
2024/02/25 09:26:16;;;;;;;0.90;0.80;;;;;;;6.83;68.97;99579.63;5060372;28;20208;-74
2024/02/25 09:28:43;;;;;;;0.83;0.70;;;;;;;6.88;69.22;99577.56;5062906;28;21106;-73
2024/02/25 09:31:18;;;;;;;1.23;0.70;;;;;;;6.88;69.80;99582.84;5058720;28;20239;-72
2024/02/25 09:33:45;;;;;;;0.60;0.60;;;;;;;6.90;69.83;99577.47;5062997;28;20241;-72
2024/02/25 09:36:11;;;;;;;2.40;0.70;;;;;;;6.88;70.80;99588.13;5063609;28;20292;-75
2024/02/25 09:38:38;;;;;;;1.20;0.80;;;;;;;6.87;70.49;99581.16;5065866;28;20213;-72
2024/02/25 09:41:05;;;;;;;0.93;0.70;;;;;;;6.88;71.04;99589.94;5058189;28;20236;-72
2024/02/25 09:43:31;;;;;;;2.30;0.80;;;;;;;6.85;71.17;99575.09;5058449;28;20829;-75
2024/02/25 09:45:58;;;;;;;0.73;0.60;;;;;;;6.85;71.65;99582.19;5054201;28;20304;-74
2024/02/25 09:48:27;;;;;;;1.60;0.90;;;;;;;6.92;71.88;99589.66;5062541;28;20209;-71
2024/02/25 09:50:54;;;;;;;1.77;0.90;;;;;;;6.97;71.32;99592.84;5063654;28;20299;-71
2024/02/25 09:53:22;;;;;;;1.70;0.93;;;;;;;6.99;70.82;99584.78;5064287;28;20305;-71
2024/02/25 09:55:49;;;;;;;1.10;0.77;;;;;;;7.05;71.46;99587.03;5062533;28;20205;-73
2024/02/25 09:58:16;;;;;;;1.67;0.93;;;;;;;7.13;71.10;99581.25;5064183;28;20209;-72
2024/02/25 10:00:43;;;;;;;1.27;0.77;;;;;;;7.20;71.18;99587.81;5064170;28;20232;-71
2024/02/25 10:03:12;;;;;;;1.10;0.90;;;;;;;7.19;70.97;99584.31;5058955;28;20632;-71
2024/02/25 10:05:40;;;;;;;0.70;0.63;;;;;;;7.24;71.07;99579.56;5054441;28;20231;-73
2024/02/25 10:08:10;;;;;;;0.90;0.70;;;;;;;7.26;71.45;99580.31;5061024;28;20861;-72
2024/02/25 10:10:38;;;;;;;1.83;1.00;;;;;;;7.29;72.13;99581.94;5061889;28;20296;-71
2024/02/25 10:13:05;;;;;;;0.60;0.60;;;;;;;7.37;71.97;99589.34;5055642;28;20219;-74
2024/02/25 10:15:32;;;;;;;1.03;0.77;;;;;;;7.35;71.37;99589.44;5058470;28;20223;-73
2024/02/25 10:17:59;;;;;;;0.73;0.70;;;;;;;7.34;71.43;99590.41;5058989;28;20205;-71
2024/02/25 10:20:26;;;;;;;0.57;0.57;;;;;;;7.33;71.48;99578.13;5055684;28;20214;-70
2024/02/25 10:23:07;;;;;;;1.00;0.63;;;;;;;7.39;72.11;99582.16;5060641;28;20237;-74
2024/02/25 10:25:34;;;;;;;0.80;0.80;;;;;;;7.38;72.25;99577.78;5063809;28;20213;-73
2024/02/25 10:28:12;;;;;;;1.27;0.67;;;;;;;7.43;72.41;99573.91;5062622;28;20284;-72
2024/02/25 10:30:38;;;;;;;1.47;0.90;;;;;;;7.45;72.06;99584.38;5060317;28;20231;-73
2024/02/25 10:33:14;;;;;;;2.10;0.73;;;;;;;7.43;71.95;99581.00;5064012;28;20211;-73
2024/02/25 10:35:40;;;;;;;1.03;0.67;;;;;;;7.43;72.87;99581.84;5059258;28;20682;-74
2024/02/25 10:38:12;;;;;;;2.10;0.80;;;;;;;7.54;73.15;99586.41;5059254;28;20227;-71
2024/02/25 10:40:40;;;;;;;1.70;0.90;;;;;;;7.57;73.50;99581.75;5062272;28;20316;-71
2024/02/25 10:43:12;;;;;;;1.27;0.70;;;;;;;7.65;73.18;99576.78;5062495;28;20227;-71
2024/02/25 10:45:42;;;;;;;1.37;0.60;;;;;;;7.74;73.62;99563.84;5061283;28;20209;-70
2024/02/25 10:48:11;;;;;;;1.50;0.60;;;;;;;7.83;73.57;99571.19;5063281;28;20201;-74
2024/02/25 10:50:38;;;;;;;1.13;0.77;;;;;;;7.89;72.62;99568.94;5063553;28;20572;-72
2024/02/25 10:53:06;;;;;;;0.97;0.70;;;;;;;7.95;72.92;99565.00;5061379;28;20216;-72
2024/02/25 10:55:35;;;;;;;0.90;0.50;;;;;;;7.99;72.42;99562.06;5059095;28;20206;-74
2024/02/25 10:58:02;;;;;;;0.93;0.80;;;;;;;7.96;72.33;99562.25;5065333;28;20217;-72
2024/02/25 11:00:28;;;;;;;0.60;0.60;;;;;;;7.96;71.69;99567.56;5064309;28;20214;-74
2024/02/25 11:02:56;;;;;;;0.90;0.47;;;;;;;7.99;72.38;99555.91;5065726;28;20236;-73
2024/02/25 11:05:23;;;;;;;0.53;0.47;;;;;;;7.97;71.37;99560.47;5066447;28;20219;-73
2024/02/25 11:07:49;;;;;;;1.10;0.70;;;;;;;7.93;70.88;99551.88;5066275;28;20220;-74
2024/02/25 11:10:19;;;;;;;0.80;0.70;;;;;;;7.91;71.92;99559.06;5066397;28;20588;-73
2024/02/25 11:12:49;;;;;;;0.60;0.50;;;;;;;7.93;71.26;99559.81;5061751;28;20232;-76
2024/02/25 11:15:20;;;;;;;0.50;0.50;;;;;;;7.91;71.58;99553.78;5065781;28;20200;-73
2024/02/25 11:17:49;;;;;;;0.30;0.30;;;;;;;7.90;71.82;99551.22;5064537;28;20197;-75
2024/02/25 11:20:22;;;;;;;0.90;0.60;;;;;;;7.86;72.67;99558.56;5066867;28;20320;-73
2024/02/25 11:22:50;;;;;;;0.90;0.50;;;;;;;7.89;72.83;99560.13;5064804;28;20239;-75
2024/02/25 11:25:36;;;;;;;1.70;0.77;;;;;;;7.95;72.50;99557.91;5066644;28;20572;-73
2024/02/25 11:28:06;;;;;;;1.93;1.13;;;;;;;7.95;71.08;99562.38;5061197;28;20208;-73
2024/02/25 11:30:40;;;;;;;7.53;3.50;;;;;;;7.96;71.21;99543.69;5065281;28;20219;-74
2024/02/25 11:33:39;;;;;;;6.40;2.90;;;;;;;7.98;70.98;99554.19;5060034;28;20585;-73
2024/02/25 11:36:15;;;;;;;3.03;1.60;;;;;;;8.00;70.92;99547.00;5064230;28;20690;-73
2024/02/25 11:38:43;;;;;;;0.70;0.70;;;;;;;7.99;71.00;99546.16;5062669;28;20280;-73
2024/02/25 11:41:11;;;;;;;1.57;0.63;;;;;;;8.04;71.18;99540.53;5063147;28;20719;-73
2024/02/25 11:43:40;;;;;;;1.87;1.00;;;;;;;8.12;71.17;99554.06;5065821;28;20216;-73